Airfield :
LOGIN :

Register | Disclaimer

   EN    FR    IT 

 










Legend :    VFR   Marginal VFR   IFR   Intensive IFR   Very Intensive IFR
Visi :
Ceiling :
>= 8 km
>= 3000ft
5 to 8 km
1000 to 3000 ft
1500m to 5 km
500 to 1000 ft
800 to 1500m
200 to 500 ft
< 800m
< 200 ft
Symbols :   Thunderstorms  Fog  Heavy snow  Heavy precipitations  Wind > 20 kt
SIGMETs :     Misc.  Thunderstorms  Icing  Turbulence  Mountain Waves  Volcanic Ashes







- Airport Elevation : 53 ft
- IATA code : AGP


LEMG - Malaga

CURRENT METAR :
  • 271230Z 16009KT 120V200 9999 FEW025 29/19 Q1016 NOSIG

EXPIRED METARs :
  • 271200Z 13008KT 080V190 9999 FEW025 29/19 Q1017 NOSIG
  • 271130Z 13008KT 100V170 9999 FEW020 SCT045 28/19 Q1017 NOSIG
  • 271100Z 12007KT 090V160 9999 FEW020 SCT045 27/19 Q1017 NOSIG
  • 271030Z 15006KT 100V200 9999 FEW020 SCT045 27/19 Q1017 NOSIG
  • 271000Z 13006KT 100V190 9999 FEW020 SCT042 26/18 Q1017 NOSIG

TAF TAF LEMG
Valid from the 27 at 12:00 until the 28 at 12:00 UTC


271100Z 2712/2812 14009KT 9999 FEW030 TX30/2812Z TN21/2806Z
BECMG 2721/2724 29004KT
BECMG 2808/2810 14008KT
No reported NOTAMs for that airfield.
4 SIGMETs reported for the Madrid FIR (LECM) :
 
Severe turbulence
LECM SIGMET 8 VALID 271202/271600 LEVA
LECM MADRID FIR/UIR SEV TURB OBS AT 1202Z WI N4107 W00428 - N4207 W00234 - N4124 W00220 - N4030 W00424 - N4107 W00428 FL060/380 STNR NC=
Severe mountain waves
LECM SIGMET 7 VALID 271200/271500 LEVA
LECM MADRID FIR/UIR SEV MTW OBS AT 1124Z WI N4129 W00411 - N4154 W00250 - N4124 W00242 - N4047 W00401 - N4129 W00411 FL060/300 STNR WKN=
Severe mountain waves
LECM SIGMET 6 VALID 271200/271500 LEVA
LECM MADRID FIR/UIR SEV MTW FCST WI N4215 W00127 - N4213 W00323 - N4403 W00321 - N4321 W00131 - N4215 W00127 SFC/FL260 STNR WKN=
Embedded thunderstorms
LECM SIGMET 5 VALID 271200/271500 LEVA
LECM MADRID FIR/UIR EMBD TS FCST N OF LINE N4304 W00823 - N4303 W00709 TOP FL340 MOV N 30KT NC=



MET'MAP, your aeronautical weather chart ! - Copyright ORBIFLY December 2007 - Disclaimer

ORBIFLY MET'MAP TEAM :

Programming & Development : Alexandra Zaïnal
Concept & Development : Baudouin d'Aumeries
Co-Development & Prog : Marc-Olivier Méhu
Technical & hardware support : Manuel Goepfert

Contact : metmap@orbifly.com




SOURCES & CREDITS :

   NOAA